McAlester, OK (74501)

7:52 PM CDT on August 24, 2016 (GMT -0500)
South McAlester | | Change Station

Elev 751 ft 34.92 °N, 95.75 °W | Updated 21 seconds ago

Clear
Clear
85.3 °F
Feels Like 89 °F
N
3.7
Wind Variable Wind from ESE

Today
High -- | Low -- °F
--% Chance of Precip.
Yesterday
High -- | Low -- °F
Precip. -- in
Pressure 29.99 in
Visibility 10.0 miles
Clouds Clear
Heat Index 89 °F
Dew Point 68 °F
Humidity 57%
Rainfall 0.00 in
Snow Depth Not available.
6:50 AM 7:59 PM
Waning Gibbous, 51% visible
METAR KMLC 242353Z AUTO 18006KT 10SM CLR 32/18 A3001 RMK AO2 SLP153 T03220178 10350 20322 57006
Pressure 29.99 in
Visibility 10.0 miles
Clouds Clear
Heat Index 89 °F
Dew Point 68 °F
Humidity 57%
Rainfall 0.00 in
Snow Depth Not available.
6:50 AM 7:59 PM
Waning Gibbous, 51% visible
METAR KMLC 242353Z AUTO 18006KT 10SM CLR 32/18 A3001 RMK AO2 SLP153 T03220178 10350 20322 57006

10-Day Weather Forecast

Almanac

Astronomy

Aug. 24, 2016 Rise Set
Actual Time
Civil Twilight
Nautical Twilight
Astronomical Twilight
Moon
Length of Visible Light
Length of Day
Tomorrow will be .
, % of the Moon is Illuminated

Today's Extremes

State Highs State Lows

Community

WunderPhotos

Upload Photos

1,934,748 photos uploaded!

WunderBlog® & News

Nearby

Air Quality

  Air Quality AQ Index Pollutant
Not available.

Snow Depth

Station Depth Elevation

Earthquake Activity

City Distance Mag. Time & Date
Minimum magnitude displayed is 2.5.

Coastal Water Temperatures

Place Temperature

Stations

Nearby Weather Stations

Station Location Temp. Windchill Dew Point Humidity Wind Precip. Elev Updated Type
                   

Watches & Warnings

There are currently no watches in effect.